Time,TemperatureF,DewpointF,PressureIn,WindDirection,WindDirectionDegrees,WindSpeedMPH,WindSpeedGustMPH,Humidity,HourlyPrecipIn,Conditions,Clouds,dailyrainin,SolarRadiationWatts/m^2,SoftwareType,DateUTC
2013-01-14 00:42:00,27.0,26.0,30.55,ENE,68,1.0,3.0,94,-99.99,,,0.00,0.000000,,2013-01-14 08:42:00,
2013-01-14 00:53:00,27.0,26.0,30.55,ENE,68,1.0,3.0,94,-99.99,,,0.00,0.000000,,2013-01-14 08:53:00,
2013-01-14 01:02:00,27.0,26.0,30.55,ENE,68,1.0,3.0,94,-99.99,,,0.00,0.000000,,2013-01-14 09:02:00,
2013-01-14 01:11:00,27.0,26.0,30.55,ENE,68,1.0,3.0,94,-99.99,,,0.00,0.000000,,2013-01-14 09:11:00,
2013-01-14 01:33:00,27.0,25.0,30.55,NE,43,1.0,2.0,93,-99.99,,,0.00,0.000000,,2013-01-14 09:33:00,
2013-01-14 01:42:00,27.0,25.0,30.55,NE,43,1.0,2.0,93,-99.99,,,0.00,0.000000,,2013-01-14 09:42:00,
2013-01-14 01:53:00,27.0,25.0,30.55,NE,43,1.0,2.0,93,-99.99,,,0.00,0.000000,,2013-01-14 09:53:00,
2013-01-14 02:02:00,27.0,25.0,30.55,NE,43,1.0,2.0,93,-99.99,,,0.00,0.000000,,2013-01-14 10:02:00,
2013-01-14 02:11:00,27.0,25.0,30.55,NE,43,1.0,2.0,93,-99.99,,,0.00,0.000000,,2013-01-14 10:11:00,
2013-01-14 02:42:00,26.0,25.0,30.56,North,350,1.0,2.0,94,-99.99,,,0.00,0.000000,,2013-01-14 10:42:00,
2013-01-14 02:53:00,26.0,25.0,30.56,North,350,1.0,2.0,94,-99.99,,,0.00,0.000000,,2013-01-14 10:53:00,
2013-01-14 03:02:00,26.0,25.0,30.56,North,350,1.0,2.0,94,-99.99,,,0.00,0.000000,,2013-01-14 11:02:00,
2013-01-14 03:11:00,26.0,25.0,30.56,North,350,1.0,2.0,94,-99.99,,,0.00,0.000000,,2013-01-14 11:11:00,
2013-01-14 03:42:00,27.0,25.0,30.55,NNW,336,1.0,3.0,94,-99.99,,,0.00,0.000000,,2013-01-14 11:42:00,
2013-01-14 03:53:00,27.0,25.0,30.55,NNW,336,1.0,3.0,94,-99.99,,,0.00,0.000000,,2013-01-14 11:53:00,
2013-01-14 04:02:00,27.0,25.0,30.55,NNW,336,1.0,3.0,94,-99.99,,,0.00,0.000000,,2013-01-14 12:02:00,
2013-01-14 04:12:00,27.0,25.0,30.55,NNW,336,1.0,3.0,94,-99.99,,,0.00,0.000000,,2013-01-14 12:12:00,
2013-01-14 04:42:00,29.0,27.0,30.54,WSW,245,3.0,9.0,93,-99.99,,,0.00,0.000000,,2013-01-14 12:42:00,
2013-01-14 04:53:00,29.0,27.0,30.54,WSW,245,3.0,9.0,93,-99.99,,,0.00,0.000000,,2013-01-14 12:53:00,
2013-01-14 05:03:00,29.0,27.0,30.54,WSW,245,3.0,9.0,93,-99.99,,,0.00,0.000000,,2013-01-14 13:03:00,
2013-01-14 05:12:00,29.0,27.0,30.54,WSW,245,3.0,9.0,93,-99.99,,,0.00,0.000000,,2013-01-14 13:12:00,
2013-01-14 05:33:00,30.0,27.0,30.55,SW,226,5.0,12.0,88,-99.99,,,0.00,0.000000,,2013-01-14 13:33:00,
2013-01-14 05:43:00,30.0,27.0,30.55,SW,226,5.0,12.0,88,-99.99,,,0.00,0.000000,,2013-01-14 13:43:00,
2013-01-14 05:53:00,30.0,27.0,30.55,SW,226,5.0,12.0,88,-99.99,,,0.00,0.000000,,2013-01-14 13:53:00,
2013-01-14 06:02:00,30.0,27.0,30.55,SW,226,5.0,12.0,88,-99.99,,,0.00,0.000000,,2013-01-14 14:02:00,
2013-01-14 06:12:00,30.0,27.0,30.55,SW,226,5.0,12.0,88,-99.99,,,0.00,0.000000,,2013-01-14 14:12:00,
2013-01-14 06:33:00,31.0,27.0,30.54,WSW,252,8.0,14.0,86,-99.99,,,0.00,0.000000,,2013-01-14 14:33:00,
2013-01-14 06:43:00,31.0,27.0,30.54,WSW,252,8.0,14.0,86,-99.99,,,0.00,0.000000,,2013-01-14 14:43:00,
2013-01-14 06:53:00,31.0,27.0,30.54,WSW,252,8.0,14.0,86,-99.99,,,0.00,0.000000,,2013-01-14 14:53:00,
2013-01-14 07:03:00,31.0,27.0,30.54,WSW,252,8.0,14.0,86,-99.99,,,0.00,0.000000,,2013-01-14 15:03:00,
2013-01-14 07:12:00,31.0,27.0,30.54,WSW,252,8.0,14.0,86,-99.99,,,0.00,0.000000,,2013-01-14 15:12:00,
2013-01-14 07:43:00,31.0,27.0,30.56,WSW,252,8.0,17.0,85,-99.99,,,0.00,0.000000,,2013-01-14 15:43:00,
2013-01-14 07:53:00,31.0,27.0,30.56,WSW,252,8.0,17.0,85,-99.99,,,0.00,0.000000,,2013-01-14 15:53:00,
2013-01-14 08:02:00,31.0,27.0,30.56,WSW,252,8.0,17.0,85,-99.99,,,0.00,0.000000,,2013-01-14 16:02:00,
2013-01-14 08:12:00,31.0,27.0,30.56,WSW,252,8.0,17.0,85,-99.99,,,0.00,0.000000,,2013-01-14 16:12:00,
2013-01-14 08:33:00,31.0,27.0,30.56,WSW,249,10.0,20.0,84,-99.99,,,0.00,15.570000,,2013-01-14 16:33:00,
2013-01-14 08:43:00,31.0,27.0,30.56,WSW,249,10.0,20.0,84,-99.99,,,0.00,15.570000,,2013-01-14 16:43:00,
2013-01-14 08:53:00,31.0,27.0,30.56,WSW,249,10.0,20.0,84,-99.99,,,0.00,15.570000,,2013-01-14 16:53:00,
2013-01-14 09:03:00,31.0,27.0,30.56,WSW,249,10.0,20.0,84,-99.99,,,0.00,15.570000,,2013-01-14 17:03:00,
2013-01-14 09:12:00,31.0,27.0,30.56,WSW,249,10.0,20.0,84,-99.99,,,0.00,15.570000,,2013-01-14 17:12:00,
2013-01-14 09:43:00,31.0,27.0,30.57,WSW,251,10.0,21.0,82,-99.99,,,0.00,66.129997,,2013-01-14 17:43:00,
2013-01-14 09:53:00,31.0,27.0,30.57,WSW,251,10.0,21.0,82,-99.99,,,0.00,66.129997,,2013-01-14 17:53:00,
2013-01-14 10:02:00,31.0,27.0,30.57,WSW,251,10.0,21.0,82,-99.99,,,0.00,66.129997,,2013-01-14 18:02:00,
2013-01-14 10:12:00,31.0,27.0,30.57,WSW,251,10.0,21.0,82,-99.99,,,0.00,66.129997,,2013-01-14 18:12:00,
2013-01-14 10:42:00,32.0,27.0,30.58,West,260,11.0,23.0,80,-99.99,,,0.00,201.179993,,2013-01-14 18:42:00,
2013-01-14 10:53:00,32.0,27.0,30.58,West,260,11.0,23.0,80,-99.99,,,0.00,201.179993,,2013-01-14 18:53:00,
2013-01-14 11:03:00,32.0,27.0,30.58,West,260,11.0,23.0,80,-99.99,,,0.00,201.179993,,2013-01-14 19:03:00,
2013-01-14 11:12:00,32.0,27.0,30.58,West,260,11.0,23.0,80,-99.99,,,0.00,201.179993,,2013-01-14 19:12:00,
2013-01-14 11:42:00,32.0,27.0,30.56,West,265,12.0,21.0,79,-99.99,,,0.00,100.410004,,2013-01-14 19:42:00,
2013-01-14 11:53:00,32.0,27.0,30.56,West,265,12.0,21.0,79,-99.99,,,0.00,100.410004,,2013-01-14 19:53:00,
2013-01-14 12:03:00,32.0,27.0,30.56,West,265,12.0,21.0,79,-99.99,,,0.00,100.410004,,2013-01-14 20:03:00,
2013-01-14 12:12:00,32.0,27.0,30.56,West,265,12.0,21.0,79,-99.99,,,0.00,100.410004,,2013-01-14 20:12:00,
2013-01-14 12:42:00,33.0,28.0,30.54,WSW,258,13.0,22.0,79,-99.99,,,0.00,195.250000,,2013-01-14 20:42:00,
2013-01-14 12:53:00,33.0,28.0,30.54,WSW,258,13.0,22.0,79,-99.99,,,0.00,195.250000,,2013-01-14 20:53:00,
2013-01-14 13:02:00,33.0,28.0,30.54,WSW,258,13.0,22.0,79,-99.99,,,0.00,195.250000,,2013-01-14 21:02:00,
2013-01-14 13:12:00,33.0,28.0,30.54,WSW,258,13.0,22.0,79,-99.99,,,0.00,195.250000,,2013-01-14 21:12:00,
2013-01-14 13:42:00,33.0,29.0,30.55,West,263,11.0,21.0,85,-99.99,,,0.00,149.690002,,2013-01-14 21:42:00,
2013-01-14 13:53:00,33.0,29.0,30.55,West,263,11.0,21.0,85,-99.99,,,0.00,149.690002,,2013-01-14 21:53:00,
2013-01-14 14:02:00,33.0,29.0,30.55,West,263,11.0,21.0,85,-99.99,,,0.00,149.690002,,2013-01-14 22:02:00,
2013-01-14 14:12:00,33.0,29.0,30.55,West,263,11.0,21.0,85,-99.99,,,0.00,149.690002,,2013-01-14 22:12:00,
2013-01-14 14:42:00,33.0,29.0,30.57,West,264,12.0,21.0,83,-99.99,,,0.00,87.980003,,2013-01-14 22:42:00,
2013-01-14 14:52:00,33.0,29.0,30.57,West,264,12.0,21.0,83,-99.99,,,0.00,87.980003,,2013-01-14 22:52:00,
2013-01-14 15:02:00,33.0,29.0,-100.00,West,264,12.0,21.0,83,-99.99,,,0.00,87.980003,,2013-01-14 23:02:00,
2013-01-14 15:12:00,33.0,29.0,30.57,West,264,12.0,21.0,83,-99.99,,,0.00,87.980003,,2013-01-14 23:12:00,
2013-01-14 15:42:00,33.0,30.0,30.57,West,261,10.0,19.0,88,-99.99,,,0.00,80.540001,,2013-01-14 23:42:00,
2013-01-14 15:53:00,33.0,30.0,30.57,West,261,10.0,19.0,88,-99.99,,,0.00,80.540001,,2013-01-14 23:53:00,
2013-01-14 16:02:00,33.0,30.0,30.57,West,261,10.0,19.0,88,-99.99,,,0.00,80.540001,,2013-01-15 00:02:00,
2013-01-14 16:12:00,33.0,30.0,30.57,West,261,10.0,19.0,88,-99.99,,,0.00,80.540001,,2013-01-15 00:12:00,
2013-01-14 16:43:00,33.0,30.0,30.58,West,264,10.0,20.0,86,-99.99,,,0.00,22.900000,,2013-01-15 00:43:00,
2013-01-14 16:53:00,33.0,30.0,30.58,West,264,10.0,20.0,86,-99.99,,,0.00,22.900000,,2013-01-15 00:53:00,
2013-01-14 17:02:00,33.0,30.0,30.58,West,264,10.0,20.0,86,-99.99,,,0.00,22.900000,,2013-01-15 01:02:00,
2013-01-14 17:12:00,33.0,30.0,30.58,West,264,10.0,20.0,86,-99.99,,,0.00,22.900000,,2013-01-15 01:12:00,
2013-01-14 18:42:00,33.0,30.0,30.58,WNW,285,8.0,17.0,89,-99.99,,,0.00,0.000000,,2013-01-15 02:42:00,
2013-01-14 18:53:00,33.0,30.0,30.58,WNW,285,8.0,17.0,89,-99.99,,,0.00,0.000000,,2013-01-15 02:53:00,
2013-01-14 19:02:00,33.0,30.0,30.58,WNW,285,8.0,17.0,89,-99.99,,,0.00,0.000000,,2013-01-15 03:02:00,
2013-01-14 19:12:00,33.0,30.0,30.58,WNW,285,8.0,17.0,89,-99.99,,,0.00,0.000000,,2013-01-15 03:12:00,
2013-01-14 19:42:00,33.0,32.0,30.60,WNW,283,7.0,12.0,95,-99.99,,,0.00,0.000000,,2013-01-15 03:42:00,
2013-01-14 19:52:00,33.0,32.0,30.60,WNW,283,7.0,12.0,95,-99.99,,,0.00,0.000000,,2013-01-15 03:52:00,
2013-01-14 20:02:00,33.0,32.0,30.60,WNW,283,7.0,12.0,95,-99.99,,,0.00,0.000000,,2013-01-15 04:02:00,
2013-01-14 20:12:00,33.0,32.0,30.60,WNW,283,7.0,12.0,95,-99.99,,,0.00,0.000000,,2013-01-15 04:12:00,
2013-01-14 20:32:00,33.0,33.0,30.59,West,271,8.0,15.0,96,-99.99,,,0.00,0.000000,,2013-01-15 04:32:00,
2013-01-14 20:42:00,33.0,33.0,30.59,West,271,8.0,15.0,96,-99.99,,,0.00,0.000000,,2013-01-15 04:42:00,
2013-01-14 20:52:00,33.0,33.0,30.59,West,271,8.0,15.0,96,-99.99,,,0.00,0.000000,,2013-01-15 04:52:00,
2013-01-14 21:03:00,33.0,33.0,30.59,West,271,8.0,15.0,96,-99.99,,,0.00,0.000000,,2013-01-15 05:03:00,
2013-01-14 21:12:00,33.0,33.0,30.59,West,271,8.0,15.0,96,-99.99,,,0.00,0.000000,,2013-01-15 05:12:00,
2013-01-14 21:42:00,34.0,33.0,30.60,West,278,5.0,9.0,96,-99.99,,,0.00,0.000000,,2013-01-15 05:42:00,
2013-01-14 21:52:00,34.0,33.0,30.60,West,278,5.0,9.0,96,-99.99,,,0.00,0.000000,,2013-01-15 05:52:00,
2013-01-14 22:02:00,34.0,33.0,30.60,West,278,5.0,9.0,96,-99.99,,,0.00,0.000000,,2013-01-15 06:02:00,
2013-01-14 22:12:00,34.0,33.0,30.60,West,278,5.0,9.0,96,-99.99,,,0.00,0.000000,,2013-01-15 06:12:00,
2013-01-14 22:42:00,35.0,34.0,30.59,West,269,5.0,10.0,96,-99.99,,,0.00,0.000000,,2013-01-15 06:42:00,
2013-01-14 22:53:00,35.0,34.0,30.59,West,269,5.0,10.0,96,-99.99,,,0.00,0.000000,,2013-01-15 06:53:00,
2013-01-14 23:02:00,35.0,34.0,30.59,West,269,5.0,10.0,96,-99.99,,,0.00,0.000000,,2013-01-15 07:02:00,
2013-01-14 23:12:00,35.0,34.0,30.59,West,269,5.0,10.0,96,-99.99,,,0.00,0.000000,,2013-01-15 07:12:00,
2013-01-14 23:42:00,36.0,34.0,30.60,WSW,243,6.0,13.0,95,-99.99,,,0.00,0.000000,,2013-01-15 07:42:00,
2013-01-14 23:52:00,36.0,34.0,30.60,WSW,243,6.0,13.0,95,-99.99,,,0.00,0.000000,,2013-01-15 07:52:00,